createdAt,value
2023-05-21T00:01:45.806Z,9.60
2023-05-21T00:04:13.274Z,8.97
2023-05-21T00:06:40.228Z,10.50
2023-05-21T00:09:07.782Z,9.70
2023-05-21T00:11:34.693Z,9.60
2023-05-21T00:14:01.646Z,10.63
2023-05-21T00:16:28.911Z,10.73
2023-05-21T00:18:56.430Z,10.37
2023-05-21T00:21:26.294Z,11.40
2023-05-21T00:23:57.055Z,10.90
2023-05-21T00:26:24.389Z,9.97
2023-05-21T00:28:51.487Z,10.30
2023-05-21T00:31:19.252Z,10.30
2023-05-21T00:33:46.249Z,11.30
2023-05-21T00:36:14.624Z,10.30
2023-05-21T00:38:46.134Z,11.10
2023-05-21T00:41:13.786Z,11.10
2023-05-21T00:43:42.142Z,10.63
2023-05-21T00:46:12.361Z,10.63
2023-05-21T00:48:39.859Z,10.60
2023-05-21T00:51:07.348Z,10.93
2023-05-21T00:53:37.453Z,11.10
2023-05-21T00:56:04.689Z,11.60
2023-05-21T00:58:33.639Z,10.63
2023-05-21T01:01:07.190Z,11.80
2023-05-21T01:03:38.755Z,11.80
2023-05-21T01:06:07.149Z,11.13
2023-05-21T01:08:35.278Z,10.43
2023-05-21T01:11:03.947Z,11.07
2023-05-21T01:13:32.908Z,10.77
2023-05-21T01:16:01.471Z,11.90
2023-05-21T01:18:28.920Z,11.33
2023-05-21T01:20:55.970Z,10.50
2023-05-21T01:23:23.020Z,10.80
2023-05-21T01:25:49.851Z,12.20
2023-05-21T01:28:16.811Z,10.70
2023-05-21T01:30:44.537Z,11.00
2023-05-21T01:33:27.944Z,11.67
2023-05-21T01:36:03.028Z,10.87
2023-05-21T01:38:47.432Z,11.80
2023-05-21T01:41:18.505Z,10.87
2023-05-21T01:43:47.590Z,11.33
2023-05-21T01:46:18.821Z,11.73
2023-05-21T01:48:46.357Z,11.17
2023-05-21T01:51:13.910Z,11.53
2023-05-21T01:53:41.459Z,11.60
2023-05-21T01:56:08.509Z,11.23
2023-05-21T01:58:35.422Z,10.43
2023-05-21T02:01:03.849Z,11.73
2023-05-21T02:03:31.437Z,11.17
2023-05-21T02:05:58.620Z,10.60
2023-05-21T02:08:25.713Z,11.60
2023-05-21T02:10:52.662Z,11.27
2023-05-21T02:13:21.963Z,11.33
2023-05-21T02:15:51.879Z,10.10
2023-05-21T02:18:21.546Z,10.20
2023-05-21T02:20:48.486Z,10.23
2023-05-21T02:23:15.832Z,11.20
2023-05-21T02:25:42.790Z,9.90
2023-05-21T02:28:09.657Z,9.87
2023-05-21T02:30:37.001Z,11.27
2023-05-21T02:33:04.010Z,11.20
2023-05-21T02:35:30.993Z,10.00
2023-05-21T02:37:59.642Z,10.40
2023-05-21T02:40:26.649Z,8.83
2023-05-21T02:42:53.550Z,9.67
2023-05-21T02:45:20.583Z,10.00
2023-05-21T02:47:47.591Z,9.47
2023-05-21T02:50:15.119Z,9.80
2023-05-21T02:52:42.124Z,10.53
2023-05-21T02:55:09.592Z,9.33
2023-05-21T02:57:36.563Z,9.63
2023-05-21T03:00:05.274Z,11.50
2023-05-21T03:02:32.599Z,11.07
2023-05-21T03:04:59.624Z,9.50
2023-05-21T03:07:27.006Z,10.37
2023-05-21T03:09:53.934Z,9.87
2023-05-21T03:12:20.856Z,9.90
2023-05-21T03:14:48.702Z,8.90
2023-05-21T03:17:17.262Z,9.57
2023-05-21T03:19:44.838Z,9.50
2023-05-21T03:22:12.200Z,8.73
2023-05-21T03:24:39.792Z,8.30
2023-05-21T03:27:07.052Z,8.60
2023-05-21T03:29:34.514Z,8.73
2023-05-21T03:32:02.072Z,9.07
2023-05-21T03:34:29.082Z,8.90
2023-05-21T03:36:56.053Z,8.90
2023-05-21T03:39:22.939Z,8.73
2023-05-21T03:41:49.826Z,8.87
2023-05-21T03:44:16.785Z,9.10
2023-05-21T03:46:45.576Z,7.70
2023-05-21T03:49:12.575Z,8.37
2023-05-21T03:51:39.755Z,8.03
2023-05-21T03:54:06.681Z,8.37
2023-05-21T03:56:33.562Z,7.07
2023-05-21T03:59:01.423Z,9.23
2023-05-21T04:01:28.578Z,8.63
2023-05-21T04:03:55.988Z,8.80
2023-05-21T04:06:23.060Z,7.67
2023-05-21T04:08:50.182Z,8.33
2023-05-21T04:11:17.065Z,8.33
2023-05-21T04:13:43.931Z,8.10
2023-05-21T04:16:11.087Z,8.13
2023-05-21T04:18:38.182Z,8.03
2023-05-21T04:21:05.239Z,7.33
2023-05-21T04:23:32.195Z,8.40
2023-05-21T04:25:59.157Z,7.27
2023-05-21T04:28:28.967Z,8.30
2023-05-21T04:30:56.955Z,8.00
2023-05-21T04:33:24.715Z,8.70
2023-05-21T04:35:52.132Z,8.33
2023-05-21T04:38:20.845Z,7.60
2023-05-21T04:40:53.140Z,7.80
2023-05-21T04:43:26.657Z,7.43
2023-05-21T04:45:57.374Z,7.77
2023-05-21T04:48:25.130Z,7.80
2023-05-21T04:50:53.706Z,8.63
2023-05-21T04:53:20.929Z,7.80
2023-05-21T04:55:48.206Z,6.70
2023-05-21T04:58:18.120Z,7.27
2023-05-21T05:00:47.252Z,6.83
2023-05-21T05:03:14.779Z,7.50
2023-05-21T05:05:42.156Z,7.90
2023-05-21T05:08:09.086Z,7.57
2023-05-21T05:10:36.429Z,7.53
2023-05-21T05:13:03.633Z,7.00
2023-05-21T05:18:02.153Z,7.40
2023-05-21T05:20:29.057Z,7.00
2023-05-21T05:22:55.936Z,7.53
2023-05-21T05:25:22.789Z,6.73
2023-05-21T05:27:49.675Z,7.50
2023-05-21T05:30:16.612Z,7.90
2023-05-21T05:32:43.604Z,8.83
2023-05-21T05:35:10.682Z,7.53
2023-05-21T05:37:37.726Z,7.97
2023-05-21T05:40:05.958Z,6.57
2023-05-21T05:42:32.817Z,7.47
2023-05-21T05:44:59.685Z,7.67
2023-05-21T05:47:26.604Z,7.40
2023-05-21T05:49:53.602Z,7.47
2023-05-21T05:52:20.612Z,7.77
2023-05-21T05:54:47.688Z,7.30
2023-05-21T05:57:14.700Z,7.60
2023-05-21T05:59:41.562Z,7.40
2023-05-21T06:02:08.496Z,7.23
2023-05-21T06:04:35.419Z,8.10
2023-05-21T06:07:02.652Z,6.93
2023-05-21T06:09:29.518Z,8.20
2023-05-21T06:11:56.520Z,7.40
2023-05-21T06:14:23.443Z,7.63
2023-05-21T06:16:50.368Z,7.50
2023-05-21T06:19:17.263Z,7.40
2023-05-21T06:21:44.284Z,7.40
2023-05-21T06:24:11.329Z,7.67
2023-05-21T06:26:38.171Z,7.30
2023-05-21T06:29:05.158Z,7.70
2023-05-21T06:31:33.372Z,7.63
2023-05-21T06:34:01.126Z,7.77
2023-05-21T06:36:30.234Z,8.90
2023-05-21T06:38:57.473Z,8.50
2023-05-21T06:41:24.598Z,7.43
2023-05-21T06:43:51.711Z,8.03
2023-05-21T06:46:18.840Z,6.93
2023-05-21T06:48:46.586Z,7.60
2023-05-21T06:51:13.526Z,7.83
2023-05-21T06:53:40.445Z,8.10
2023-05-21T06:56:07.588Z,7.60
2023-05-21T06:58:34.452Z,8.07
2023-05-21T07:01:01.963Z,7.80
2023-05-21T07:03:29.049Z,7.90
2023-05-21T07:05:57.135Z,9.33
2023-05-21T07:08:24.142Z,8.30
2023-05-21T07:10:51.023Z,7.80
2023-05-21T07:13:17.929Z,7.40
2023-05-21T07:15:44.801Z,8.27
2023-05-21T07:18:12.227Z,8.73
2023-05-21T07:20:39.235Z,8.60
2023-05-21T07:23:06.295Z,8.43
2023-05-21T07:25:33.566Z,8.27
2023-05-21T07:28:01.077Z,8.70
2023-05-21T07:30:27.944Z,9.50
2023-05-21T07:32:54.844Z,9.10
2023-05-21T07:35:21.902Z,8.47
2023-05-21T07:37:48.896Z,8.97
2023-05-21T07:40:16.043Z,9.07
2023-05-21T07:42:42.887Z,9.33
2023-05-21T07:45:10.099Z,9.73
2023-05-21T07:47:37.006Z,10.40
2023-05-21T07:50:04.356Z,10.03
2023-05-21T07:52:31.329Z,9.50
2023-05-21T07:54:58.226Z,10.33
2023-05-21T07:57:25.223Z,9.73
2023-05-21T07:59:52.131Z,8.77
2023-05-21T08:02:19.121Z,9.00
2023-05-21T08:04:46.051Z,9.20
2023-05-21T08:07:13.086Z,10.10
2023-05-21T08:09:39.952Z,10.67
2023-05-21T08:12:07.450Z,11.67
2023-05-21T08:14:34.422Z,10.00
2023-05-21T08:17:01.497Z,10.20
2023-05-21T08:19:28.479Z,10.97
2023-05-21T08:21:55.504Z,10.47
2023-05-21T08:24:22.897Z,10.03
2023-05-21T08:26:50.753Z,9.50
2023-05-21T08:29:17.684Z,10.80
2023-05-21T08:31:44.589Z,10.60
2023-05-21T08:34:11.542Z,10.77
2023-05-21T08:36:38.588Z,10.37
2023-05-21T08:39:05.436Z,11.00
2023-05-21T08:41:35.947Z,11.60
2023-05-21T08:44:03.173Z,10.40
2023-05-21T08:46:36.549Z,11.60
2023-05-21T08:49:04.005Z,12.30
2023-05-21T08:51:31.565Z,11.73
2023-05-21T08:54:01.799Z,11.33
2023-05-21T08:56:31.460Z,11.70
2023-05-21T08:58:59.709Z,9.77
2023-05-21T09:01:27.802Z,10.33
2023-05-21T09:04:05.079Z,11.70
2023-05-21T09:06:41.461Z,10.73
2023-05-21T09:09:21.471Z,11.00
2023-05-21T09:11:49.303Z,11.20
2023-05-21T09:14:17.565Z,10.00
2023-05-21T09:16:48.514Z,10.90
2023-05-21T09:19:15.614Z,10.80
2023-05-21T09:21:42.555Z,10.87
2023-05-21T09:24:11.220Z,11.03
2023-05-21T09:26:38.207Z,10.60
2023-05-21T09:29:05.116Z,10.70
2023-05-21T09:31:33.143Z,10.80
2023-05-21T09:34:00.228Z,12.10
2023-05-21T09:36:29.664Z,10.30
2023-05-21T09:38:58.530Z,10.70
2023-05-21T09:41:33.167Z,11.00
2023-05-21T09:44:02.016Z,11.97
2023-05-21T09:46:39.561Z,11.53
2023-05-21T09:49:06.670Z,11.33
2023-05-21T09:51:33.587Z,12.10
2023-05-21T09:54:01.296Z,11.80
2023-05-21T09:56:32.626Z,12.00
2023-05-21T09:59:06.935Z,12.03
2023-05-21T10:01:34.720Z,12.27
2023-05-21T10:04:08.115Z,12.60
2023-05-21T10:06:41.317Z,12.87
2023-05-21T10:09:10.853Z,11.77
2023-05-21T10:11:38.354Z,13.70
2023-05-21T10:14:16.998Z,12.60
2023-05-21T10:16:45.146Z,12.43
2023-05-21T10:19:13.372Z,13.23
2023-05-21T10:21:41.754Z,13.50
2023-05-21T10:24:12.134Z,12.70
2023-05-21T10:26:41.528Z,13.20
2023-05-21T10:29:09.126Z,12.50
2023-05-21T10:31:37.353Z,12.70
2023-05-21T10:34:06.492Z,13.43
2023-05-21T10:36:34.429Z,12.37
2023-05-21T10:39:02.909Z,14.73
2023-05-21T10:41:38.251Z,13.60
2023-05-21T10:44:19.684Z,13.90
2023-05-21T10:47:07.778Z,13.17
2023-05-21T10:50:11.443Z,13.43
2023-05-21T10:53:00.458Z,15.00
2023-05-21T10:56:11.113Z,13.20
2023-05-21T10:59:04.271Z,13.27
2023-05-21T11:01:35.821Z,13.30
2023-05-21T11:04:04.169Z,14.20
2023-05-21T11:06:31.395Z,12.60
2023-05-21T11:09:12.538Z,14.10
2023-05-21T11:11:43.423Z,14.00
2023-05-21T11:14:43.176Z,14.83
2023-05-21T11:17:16.513Z,15.70
2023-05-21T11:19:47.563Z,15.07
2023-05-21T11:22:25.650Z,16.00
2023-05-21T11:24:54.494Z,13.73
2023-05-21T11:27:42.966Z,15.20
2023-05-21T11:30:19.661Z,15.37
2023-05-21T11:33:08.372Z,15.23
2023-05-21T11:35:50.286Z,14.00
2023-05-21T11:38:18.329Z,15.50
2023-05-21T11:40:56.582Z,15.40
2023-05-21T11:43:23.480Z,14.80
2023-05-21T11:45:53.144Z,15.43
2023-05-21T11:48:26.717Z,14.90
2023-05-21T11:50:54.705Z,16.73
2023-05-21T11:53:21.814Z,14.17
2023-05-21T11:55:48.904Z,15.03
2023-05-21T11:58:16.797Z,14.37
2023-05-21T12:00:43.743Z,13.60
2023-05-21T12:03:14.547Z,13.70
2023-05-21T12:05:46.968Z,14.77
2023-05-21T12:08:13.973Z,14.17
2023-05-21T12:10:40.890Z,14.43
2023-05-21T12:13:07.854Z,13.93
2023-05-21T12:15:35.237Z,14.73
2023-05-21T12:18:03.096Z,15.83
2023-05-21T12:20:30.064Z,14.43
2023-05-21T12:22:58.112Z,15.03
2023-05-21T12:25:25.381Z,14.13
2023-05-21T12:27:59.026Z,14.40
2023-05-21T12:30:26.789Z,14.30
2023-05-21T12:32:53.780Z,14.97
2023-05-21T12:35:24.752Z,13.97
2023-05-21T12:37:52.259Z,14.93
2023-05-21T12:40:19.884Z,14.53
2023-05-21T12:42:47.164Z,16.83
2023-05-21T12:45:14.634Z,13.97
2023-05-21T12:47:41.632Z,14.50
2023-05-21T12:50:14.183Z,16.03
2023-05-21T12:52:43.246Z,13.00
2023-05-21T12:55:13.167Z,13.93
2023-05-21T12:57:40.020Z,15.20
2023-05-21T13:00:08.212Z,13.63
2023-05-21T13:02:42.543Z,13.50
2023-05-21T13:05:11.726Z,14.03
2023-05-21T13:07:40.045Z,13.67
2023-05-21T13:10:07.775Z,15.80
2023-05-21T13:12:35.099Z,13.83
2023-05-21T13:15:04.287Z,13.67
2023-05-21T13:17:32.726Z,13.30
2023-05-21T13:22:56.299Z,13.60
2023-05-21T13:25:27.607Z,14.07
2023-05-21T13:27:54.854Z,13.67
2023-05-21T13:30:22.693Z,13.70
2023-05-21T13:32:49.721Z,14.47
2023-05-21T13:35:17.401Z,13.50
2023-05-21T13:37:45.221Z,13.50
2023-05-21T13:40:17.064Z,14.07
2023-05-21T13:42:49.242Z,14.47
2023-05-21T13:45:18.232Z,14.27
2023-05-21T13:47:46.455Z,13.60
2023-05-21T13:50:13.700Z,13.60
2023-05-21T13:52:41.384Z,13.70
2023-05-21T13:55:09.651Z,11.83
2023-05-21T13:57:36.596Z,13.70
2023-05-21T14:00:04.862Z,13.33
2023-05-21T14:02:31.897Z,13.03
2023-05-21T14:04:59.055Z,15.27
2023-05-21T14:07:26.812Z,12.90
2023-05-21T14:09:53.878Z,14.70
2023-05-21T14:12:21.881Z,14.33
2023-05-21T14:14:50.019Z,13.20
2023-05-21T14:17:16.971Z,13.57
2023-05-21T14:19:43.897Z,12.70
2023-05-21T14:22:10.762Z,13.40
2023-05-21T14:24:37.720Z,13.33
2023-05-21T14:27:04.715Z,14.80
2023-05-21T14:29:31.796Z,13.67
2023-05-21T14:31:58.759Z,14.43
2023-05-21T14:34:25.739Z,13.43
2023-05-21T14:36:52.675Z,12.90
2023-05-21T14:39:19.651Z,14.43
2023-05-21T14:41:46.556Z,14.60
2023-05-21T14:44:13.505Z,15.10
2023-05-21T14:46:40.623Z,13.77
2023-05-21T14:49:07.551Z,13.23
2023-05-21T14:51:34.442Z,12.70
2023-05-21T14:54:01.422Z,14.50
2023-05-21T14:56:28.363Z,13.40
2023-05-21T14:58:55.726Z,14.43
2023-05-21T15:01:22.911Z,13.63
2023-05-21T15:03:50.065Z,13.70
2023-05-21T15:06:17.403Z,13.03
2023-05-21T15:08:44.293Z,12.50
2023-05-21T15:11:11.695Z,12.10
2023-05-21T15:13:39.033Z,13.13
2023-05-21T15:16:06.326Z,13.53
2023-05-21T15:18:33.464Z,12.30
2023-05-21T15:21:00.603Z,13.23
2023-05-21T15:23:27.636Z,13.03
2023-05-21T15:25:54.623Z,14.30
2023-05-21T15:28:23.108Z,13.70
2023-05-21T15:30:50.397Z,13.17
2023-05-21T15:33:17.482Z,13.20
2023-05-21T15:35:44.723Z,13.67
2023-05-21T15:38:12.071Z,13.57
2023-05-21T15:40:41.501Z,13.67
2023-05-21T15:43:08.422Z,12.60
2023-05-21T15:45:35.660Z,13.73
2023-05-21T15:48:02.806Z,12.30
2023-05-21T15:50:29.810Z,13.10
2023-05-21T15:52:56.693Z,12.90
2023-05-21T15:55:23.575Z,13.40
2023-05-21T15:57:50.500Z,13.80
2023-05-21T16:00:17.416Z,12.83
2023-05-21T16:02:44.543Z,13.53
2023-05-21T16:05:11.550Z,13.53
2023-05-21T16:07:38.606Z,13.93
2023-05-21T16:10:06.729Z,14.80
2023-05-21T16:12:33.718Z,15.23
2023-05-21T16:15:00.865Z,14.70
2023-05-21T16:17:27.864Z,14.07
2023-05-21T16:19:54.885Z,14.93
2023-05-21T16:22:23.347Z,13.40
2023-05-21T16:24:50.242Z,13.53
2023-05-21T16:27:17.240Z,13.73
2023-05-21T16:29:44.600Z,14.50
2023-05-21T16:32:14.145Z,13.60
2023-05-21T16:34:41.348Z,13.70
2023-05-21T16:37:09.948Z,13.80
2023-05-21T16:39:37.434Z,14.07
2023-05-21T16:42:04.597Z,13.70
2023-05-21T16:44:32.405Z,14.33
2023-05-21T16:47:00.281Z,14.10
2023-05-21T16:49:27.897Z,14.77
2023-05-21T16:51:55.013Z,14.70
2023-05-21T16:54:22.113Z,14.03
2023-05-21T16:56:49.136Z,13.97
2023-05-21T16:59:16.345Z,14.00
2023-05-21T17:01:43.364Z,12.83
2023-05-21T17:04:11.119Z,14.67
2023-05-21T17:06:38.078Z,14.13
2023-05-21T17:09:05.041Z,13.50
2023-05-21T17:11:31.935Z,13.93
2023-05-21T17:13:58.895Z,14.00
2023-05-21T17:16:25.922Z,13.73
2023-05-21T17:18:52.929Z,13.20
2023-05-21T17:21:20.004Z,14.27
2023-05-21T17:23:46.994Z,13.50
2023-05-21T17:26:14.086Z,13.10
2023-05-21T17:28:41.068Z,14.43
2023-05-21T17:31:09.041Z,14.27
2023-05-21T17:33:37.594Z,13.07
2023-05-21T17:36:04.744Z,13.00
2023-05-21T17:38:31.686Z,12.90
2023-05-21T17:40:59.477Z,14.60
2023-05-21T17:43:27.831Z,15.23
2023-05-21T17:45:54.854Z,15.10
2023-05-21T17:48:21.986Z,20.67
2023-05-21T17:50:48.979Z,32.47
2023-05-21T17:53:16.647Z,14.67
2023-05-21T17:55:43.811Z,23.27
2023-05-21T17:58:10.761Z,36.40
2023-05-21T18:00:37.701Z,25.07
2023-05-21T18:03:04.880Z,58.93
2023-05-21T18:05:31.912Z,16.50
2023-05-21T18:08:01.330Z,21.13
2023-05-21T18:10:28.556Z,26.50
2023-05-21T18:12:55.610Z,20.57
2023-05-21T18:17:59.107Z,14.57
2023-05-21T18:20:26.289Z,13.97
2023-05-21T18:22:54.114Z,14.93
2023-05-21T18:25:21.058Z,13.07
2023-05-21T18:27:47.927Z,17.43
2023-05-21T18:30:14.921Z,13.60
2023-05-21T18:32:44.103Z,12.80
2023-05-21T18:35:13.620Z,13.10
2023-05-21T18:37:44.589Z,13.90
2023-05-21T18:40:12.778Z,14.27
2023-05-21T18:42:39.658Z,13.37
2023-05-21T18:45:10.570Z,12.70
2023-05-21T18:47:39.301Z,12.83
2023-05-21T18:50:12.498Z,14.17
2023-05-21T18:52:39.742Z,13.80
2023-05-21T18:55:07.108Z,12.97
2023-05-21T18:57:34.862Z,14.37
2023-05-21T19:00:01.810Z,13.20
2023-05-21T19:02:29.936Z,13.70
2023-05-21T19:04:56.905Z,15.40
2023-05-21T19:07:23.830Z,21.73
2023-05-21T19:09:50.754Z,13.57
2023-05-21T19:12:17.644Z,18.67
2023-05-21T19:14:45.158Z,13.17
2023-05-21T19:17:13.731Z,14.77
2023-05-21T19:19:40.792Z,14.00
2023-05-21T19:22:07.870Z,15.60
2023-05-21T19:24:34.925Z,13.30
2023-05-21T19:27:01.834Z,14.73
2023-05-21T19:29:28.914Z,15.07
2023-05-21T19:31:57.512Z,14.30
2023-05-21T19:34:24.699Z,14.67
2023-05-21T19:36:53.801Z,14.40
2023-05-21T19:39:21.487Z,14.30
2023-05-21T19:41:48.499Z,13.97
2023-05-21T19:44:15.535Z,14.63
2023-05-21T19:46:42.408Z,13.90
2023-05-21T19:49:11.220Z,14.00
2023-05-21T19:51:38.170Z,15.17
2023-05-21T19:54:05.075Z,14.13
2023-05-21T19:56:31.966Z,14.37
2023-05-21T19:58:59.104Z,15.63
2023-05-21T20:01:26.155Z,15.53
2023-05-21T20:03:53.263Z,17.03
2023-05-21T20:06:20.919Z,16.87
2023-05-21T20:08:48.153Z,14.27
2023-05-21T20:11:15.544Z,14.80
2023-05-21T20:13:42.615Z,14.00
2023-05-21T20:16:10.740Z,15.80
2023-05-21T20:18:37.702Z,16.67
2023-05-21T20:21:06.350Z,15.40
2023-05-21T20:23:33.290Z,17.50
2023-05-21T20:26:00.252Z,18.70
2023-05-21T20:28:27.115Z,15.00
2023-05-21T20:30:59.565Z,17.37
2023-05-21T20:33:31.905Z,17.10
2023-05-21T20:35:59.229Z,18.50
2023-05-21T20:38:26.659Z,16.70
2023-05-21T20:40:55.254Z,18.20
2023-05-21T20:43:24.633Z,27.50
2023-05-21T20:45:59.640Z,16.53
2023-05-21T20:48:30.073Z,16.40
2023-05-21T20:51:00.482Z,17.00
2023-05-21T20:53:27.790Z,16.60
2023-05-21T20:55:54.947Z,16.70
2023-05-21T20:58:25.754Z,17.83
2023-05-21T21:00:52.777Z,16.97
2023-05-21T21:03:21.846Z,17.40
2023-05-21T21:05:49.020Z,19.47
2023-05-21T21:08:16.351Z,17.57
2023-05-21T21:10:47.155Z,19.00
2023-05-21T21:13:14.633Z,19.67
2023-05-21T21:15:42.856Z,17.57
2023-05-21T21:18:12.712Z,18.40
2023-05-21T21:20:41.472Z,18.60
2023-05-21T21:23:08.992Z,18.60
2023-05-21T21:25:36.055Z,19.03
2023-05-21T21:28:03.026Z,18.23
2023-05-21T21:30:29.991Z,17.20
2023-05-21T21:32:57.106Z,18.40
2023-05-21T21:35:24.141Z,19.00
2023-05-21T21:37:51.133Z,18.10
2023-05-21T21:40:18.194Z,18.10
2023-05-21T21:42:45.177Z,18.33
2023-05-21T21:45:12.124Z,17.97
2023-05-21T21:47:39.014Z,19.23
2023-05-21T21:50:07.466Z,17.40
2023-05-21T21:52:34.399Z,17.77
2023-05-21T21:55:01.252Z,17.50
2023-05-21T21:57:29.636Z,16.70
2023-05-21T21:59:56.626Z,15.90
2023-05-21T22:02:23.634Z,15.00
2023-05-21T22:04:50.583Z,16.60
2023-05-21T22:07:18.322Z,14.17
2023-05-21T22:09:45.882Z,15.70
2023-05-21T22:12:13.467Z,14.43
2023-05-21T22:14:40.342Z,13.90
2023-05-21T22:17:08.674Z,13.27
2023-05-21T22:19:36.080Z,13.60
2023-05-21T22:22:04.607Z,12.30
2023-05-21T22:24:33.133Z,13.20
2023-05-21T22:27:00.641Z,11.40
2023-05-21T22:29:27.612Z,10.97
2023-05-21T22:31:54.541Z,12.07
2023-05-21T22:34:22.419Z,33.20
2023-05-21T22:36:49.341Z,10.53
2023-05-21T22:39:16.983Z,10.60
2023-05-21T22:41:44.657Z,9.10
2023-05-21T22:44:11.567Z,10.07
2023-05-21T22:46:39.204Z,10.77
2023-05-21T22:49:06.436Z,10.20
2023-05-21T22:51:34.983Z,10.03
2023-05-21T22:54:02.163Z,9.00
2023-05-21T22:56:29.471Z,9.50
2023-05-21T22:58:56.880Z,8.70
2023-05-21T23:01:23.926Z,8.77
2023-05-21T23:03:51.874Z,8.80
2023-05-21T23:06:18.967Z,9.40
2023-05-21T23:08:46.020Z,8.50
2023-05-21T23:11:13.020Z,8.33
2023-05-21T23:13:39.910Z,8.00
2023-05-21T23:16:07.465Z,8.00
2023-05-21T23:18:35.407Z,7.43
2023-05-21T23:21:02.566Z,7.93
2023-05-21T23:23:29.648Z,7.40
2023-05-21T23:25:57.910Z,8.60
2023-05-21T23:28:25.784Z,8.40
2023-05-21T23:30:52.806Z,8.30
2023-05-21T23:33:19.951Z,8.60
2023-05-21T23:35:46.824Z,8.20
2023-05-21T23:38:13.795Z,8.40
2023-05-21T23:40:40.874Z,8.30
2023-05-21T23:43:08.143Z,8.20
2023-05-21T23:45:37.944Z,9.20
2023-05-21T23:48:05.215Z,9.30
2023-05-21T23:50:32.252Z,9.00
2023-05-21T23:52:59.506Z,9.30
2023-05-21T23:55:26.420Z,9.83
2023-05-21T23:57:53.290Z,9.53
